sensor_id;sensor_type;location;lat;lon;timestamp;temperature;humidity
42147;DHT22;27815;43.410;11.852;2023-12-04T00:01:03;6.50;61.70
42147;DHT22;27815;43.410;11.852;2023-12-04T00:05:37;6.40;61.80
42147;DHT22;27815;43.410;11.852;2023-12-04T00:09:43;6.50;61.70
42147;DHT22;27815;43.410;11.852;2023-12-04T00:14:13;6.40;61.70
42147;DHT22;27815;43.410;11.852;2023-12-04T00:18:43;6.40;61.60
42147;DHT22;27815;43.410;11.852;2023-12-04T00:22:47;6.40;61.60
42147;DHT22;27815;43.410;11.852;2023-12-04T00:33:24;6.30;61.60
42147;DHT22;27815;43.410;11.852;2023-12-04T00:37:31;6.30;61.60
42147;DHT22;27815;43.410;11.852;2023-12-04T00:41:37;6.30;61.70
42147;DHT22;27815;43.410;11.852;2023-12-04T00:57:02;5.30;62.40
42147;DHT22;27815;43.410;11.852;2023-12-04T01:01:32;5.00;62.70
42147;DHT22;27815;43.410;11.852;2023-12-04T01:06:02;4.80;62.90
42147;DHT22;27815;43.410;11.852;2023-12-04T01:10:32;4.60;63.10
42147;DHT22;27815;43.410;11.852;2023-12-04T01:14:41;4.50;63.30
42147;DHT22;27815;43.410;11.852;2023-12-04T01:38:00;4.90;64.10
42147;DHT22;27815;43.410;11.852;2023-12-04T01:42:30;5.20;63.90
42147;DHT22;27815;43.410;11.852;2023-12-04T01:47:04;5.40;63.60
42147;DHT22;27815;43.410;11.852;2023-12-04T01:51:10;5.60;63.30
42147;DHT22;27815;43.410;11.852;2023-12-04T02:16:31;5.90;62.60
42147;DHT22;27815;43.410;11.852;2023-12-04T02:32:33;5.90;62.20
42147;DHT22;27815;43.410;11.852;2023-12-04T02:36:42;5.90;62.10
42147;DHT22;27815;43.410;11.852;2023-12-04T02:40:49;6.00;62.00
42147;DHT22;27815;43.410;11.852;2023-12-04T02:44:56;6.00;61.80
42147;DHT22;27815;43.410;11.852;2023-12-04T02:49:01;6.00;61.70
42147;DHT22;27815;43.410;11.852;2023-12-04T02:53:09;6.10;61.60
42147;DHT22;27815;43.410;11.852;2023-12-04T02:57:13;6.10;61.30
42147;DHT22;27815;43.410;11.852;2023-12-04T03:01:43;6.10;61.20
42147;DHT22;27815;43.410;11.852;2023-12-04T03:06:12;6.20;60.90
42147;DHT22;27815;43.410;11.852;2023-12-04T03:15:40;5.90;60.00
42147;DHT22;27815;43.410;11.852;2023-12-04T03:20:10;5.30;60.80
42147;DHT22;27815;43.410;11.852;2023-12-04T03:24:45;5.20;61.50
42147;DHT22;27815;43.410;11.852;2023-12-04T03:28:53;4.90;61.80
42147;DHT22;27815;43.410;11.852;2023-12-04T03:33:05;4.70;62.30
42147;DHT22;27815;43.410;11.852;2023-12-04T03:44:22;4.50;62.80
42147;DHT22;27815;43.410;11.852;2023-12-04T04:13:46;3.80;64.00
42147;DHT22;27815;43.410;11.852;2023-12-04T04:17:50;3.80;64.20
42147;DHT22;27815;43.410;11.852;2023-12-04T04:21:53;3.80;64.20
42147;DHT22;27815;43.410;11.852;2023-12-04T04:25:56;3.80;64.10
42147;DHT22;27815;43.410;11.852;2023-12-04T04:29:59;3.80;64.20
42147;DHT22;27815;43.410;11.852;2023-12-04T04:34:02;3.80;64.20
42147;DHT22;27815;43.410;11.852;2023-12-04T04:38:05;3.70;64.30
42147;DHT22;27815;43.410;11.852;2023-12-04T04:42:08;3.70;64.30
42147;DHT22;27815;43.410;11.852;2023-12-04T04:46:13;3.70;64.50
42147;DHT22;27815;43.410;11.852;2023-12-04T04:50:16;3.80;64.60
42147;DHT22;27815;43.410;11.852;2023-12-04T04:54:18;3.80;64.60
42147;DHT22;27815;43.410;11.852;2023-12-04T04:58:22;3.90;64.50
42147;DHT22;27815;43.410;11.852;2023-12-04T05:02:25;3.80;64.30
42147;DHT22;27815;43.410;11.852;2023-12-04T05:06:28;3.80;64.40
42147;DHT22;27815;43.410;11.852;2023-12-04T05:10:31;3.80;64.40
42147;DHT22;27815;43.410;11.852;2023-12-04T05:14:34;3.70;64.40
42147;DHT22;27815;43.410;11.852;2023-12-04T05:18:41;3.60;64.50
42147;DHT22;27815;43.410;11.852;2023-12-04T05:22:44;3.60;64.60
42147;DHT22;27815;43.410;11.852;2023-12-04T05:26:47;3.60;64.70
42147;DHT22;27815;43.410;11.852;2023-12-04T05:30:50;3.60;64.70
42147;DHT22;27815;43.410;11.852;2023-12-04T05:34:53;3.50;64.80
42147;DHT22;27815;43.410;11.852;2023-12-04T05:38:56;3.50;64.90
42147;DHT22;27815;43.410;11.852;2023-12-04T05:43:02;3.50;64.90
42147;DHT22;27815;43.410;11.852;2023-12-04T05:47:05;3.40;65.00
42147;DHT22;27815;43.410;11.852;2023-12-04T05:51:10;3.20;65.30
42147;DHT22;27815;43.410;11.852;2023-12-04T05:55:14;3.20;65.40
42147;DHT22;27815;43.410;11.852;2023-12-04T05:59:17;3.30;65.30
42147;DHT22;27815;43.410;11.852;2023-12-04T06:03:26;3.30;65.30
42147;DHT22;27815;43.410;11.852;2023-12-04T06:07:29;3.30;65.40
42147;DHT22;27815;43.410;11.852;2023-12-04T06:11:32;3.30;65.40
42147;DHT22;27815;43.410;11.852;2023-12-04T06:15:35;3.30;65.40
42147;DHT22;27815;43.410;11.852;2023-12-04T06:19:38;3.30;65.50
42147;DHT22;27815;43.410;11.852;2023-12-04T06:23:41;3.20;65.60
42147;DHT22;27815;43.410;11.852;2023-12-04T06:27:44;3.30;65.60
42147;DHT22;27815;43.410;11.852;2023-12-04T06:31:48;3.30;65.60
42147;DHT22;27815;43.410;11.852;2023-12-04T06:35:51;3.40;65.60
42147;DHT22;27815;43.410;11.852;2023-12-04T06:39:55;3.40;65.60
42147;DHT22;27815;43.410;11.852;2023-12-04T06:43:59;3.40;65.70
42147;DHT22;27815;43.410;11.852;2023-12-04T06:48:04;3.40;65.60
42147;DHT22;27815;43.410;11.852;2023-12-04T06:52:07;3.30;65.60
42147;DHT22;27815;43.410;11.852;2023-12-04T06:56:10;3.40;65.70
42147;DHT22;27815;43.410;11.852;2023-12-04T07:00:14;3.50;65.70
42147;DHT22;27815;43.410;11.852;2023-12-04T07:04:24;3.40;65.60
42147;DHT22;27815;43.410;11.852;2023-12-04T07:08:30;3.40;65.70
42147;DHT22;27815;43.410;11.852;2023-12-04T07:12:36;3.50;65.80
42147;DHT22;27815;43.410;11.852;2023-12-04T07:16:41;3.50;65.90
42147;DHT22;27815;43.410;11.852;2023-12-04T07:20:44;3.50;65.90
42147;DHT22;27815;43.410;11.852;2023-12-04T07:24:47;3.50;65.90
42147;DHT22;27815;43.410;11.852;2023-12-04T07:28:50;3.50;66.00
42147;DHT22;27815;43.410;11.852;2023-12-04T07:32:53;3.50;66.00
42147;DHT22;27815;43.410;11.852;2023-12-04T07:36:56;3.50;66.30
42147;DHT22;27815;43.410;11.852;2023-12-04T07:41:00;3.60;66.20
42147;DHT22;27815;43.410;11.852;2023-12-04T07:45:04;3.80;66.10
42147;DHT22;27815;43.410;11.852;2023-12-04T07:49:08;3.80;66.30
42147;DHT22;27815;43.410;11.852;2023-12-04T07:53:11;3.80;66.30
42147;DHT22;27815;43.410;11.852;2023-12-04T07:57:14;4.00;66.30
42147;DHT22;27815;43.410;11.852;2023-12-04T08:01:19;4.10;66.10
42147;DHT22;27815;43.410;11.852;2023-12-04T08:05:23;4.30;66.10
42147;DHT22;27815;43.410;11.852;2023-12-04T08:09:26;4.30;66.00
42147;DHT22;27815;43.410;11.852;2023-12-04T08:13:29;4.30;66.10
42147;DHT22;27815;43.410;11.852;2023-12-04T08:17:34;4.30;66.20
42147;DHT22;27815;43.410;11.852;2023-12-04T08:21:37;4.30;66.40
42147;DHT22;27815;43.410;11.852;2023-12-04T08:25:40;4.30;66.60
42147;DHT22;27815;43.410;11.852;2023-12-04T08:29:43;4.30;66.70
42147;DHT22;27815;43.410;11.852;2023-12-04T08:33:46;4.30;66.90
42147;DHT22;27815;43.410;11.852;2023-12-04T08:37:50;4.30;67.00
42147;DHT22;27815;43.410;11.852;2023-12-04T08:41:53;4.40;67.00
42147;DHT22;27815;43.410;11.852;2023-12-04T08:46:05;4.50;67.00
42147;DHT22;27815;43.410;11.852;2023-12-04T08:50:08;4.60;67.00
42147;DHT22;27815;43.410;11.852;2023-12-04T08:54:12;4.80;66.80
42147;DHT22;27815;43.410;11.852;2023-12-04T08:58:17;5.00;66.60
42147;DHT22;27815;43.410;11.852;2023-12-04T09:02:20;5.20;66.40
42147;DHT22;27815;43.410;11.852;2023-12-04T09:06:23;5.40;66.40
42147;DHT22;27815;43.410;11.852;2023-12-04T09:10:46;5.60;66.20
42147;DHT22;27815;43.410;11.852;2023-12-04T09:15:10;5.80;66.00
42147;DHT22;27815;43.410;11.852;2023-12-04T09:19:14;5.90;65.90
42147;DHT22;27815;43.410;11.852;2023-12-04T09:23:17;6.00;65.70
42147;DHT22;27815;43.410;11.852;2023-12-04T09:27:20;6.10;65.60
42147;DHT22;27815;43.410;11.852;2023-12-04T09:31:25;6.30;65.50
42147;DHT22;27815;43.410;11.852;2023-12-04T09:35:28;6.30;65.20
42147;DHT22;27815;43.410;11.852;2023-12-04T09:39:31;6.50;65.10
42147;DHT22;27815;43.410;11.852;2023-12-04T09:43:39;6.60;64.90
42147;DHT22;27815;43.410;11.852;2023-12-04T09:47:46;6.60;64.70
42147;DHT22;27815;43.410;11.852;2023-12-04T09:51:50;6.70;64.70
42147;DHT22;27815;43.410;11.852;2023-12-04T09:55:57;6.80;64.50
42147;DHT22;27815;43.410;11.852;2023-12-04T10:00:03;6.80;64.40
42147;DHT22;27815;43.410;11.852;2023-12-04T10:04:13;6.90;64.40
42147;DHT22;27815;43.410;11.852;2023-12-04T10:08:16;7.10;64.10
42147;DHT22;27815;43.410;11.852;2023-12-04T10:12:20;7.00;64.10
42147;DHT22;27815;43.410;11.852;2023-12-04T10:16:35;7.10;64.10
42147;DHT22;27815;43.410;11.852;2023-12-04T10:20:51;7.20;63.90
42147;DHT22;27815;43.410;11.852;2023-12-04T10:24:58;7.30;63.80
42147;DHT22;27815;43.410;11.852;2023-12-04T10:29:02;7.30;63.70
42147;DHT22;27815;43.410;11.852;2023-12-04T10:33:06;7.50;63.50
42147;DHT22;27815;43.410;11.852;2023-12-04T10:37:10;7.50;63.50
42147;DHT22;27815;43.410;11.852;2023-12-04T10:41:14;7.50;63.50
42147;DHT22;27815;43.410;11.852;2023-12-04T10:45:17;7.60;63.40
42147;DHT22;27815;43.410;11.852;2023-12-04T10:49:20;7.60;63.40
42147;DHT22;27815;43.410;11.852;2023-12-04T10:53:24;7.60;63.30
42147;DHT22;27815;43.410;11.852;2023-12-04T10:57:33;7.70;63.30
42147;DHT22;27815;43.410;11.852;2023-12-04T11:01:42;7.80;63.10
42147;DHT22;27815;43.410;11.852;2023-12-04T11:05:51;7.80;63.10
42147;DHT22;27815;43.410;11.852;2023-12-04T11:09:56;7.90;63.00
42147;DHT22;27815;43.410;11.852;2023-12-04T11:14:03;7.90;63.00
42147;DHT22;27815;43.410;11.852;2023-12-04T11:18:07;8.00;62.80
42147;DHT22;27815;43.410;11.852;2023-12-04T11:22:14;8.00;62.70
42147;DHT22;27815;43.410;11.852;2023-12-04T11:26:18;8.00;62.70
42147;DHT22;27815;43.410;11.852;2023-12-04T11:30:22;8.00;62.70
42147;DHT22;27815;43.410;11.852;2023-12-04T11:34:25;8.10;62.70
42147;DHT22;27815;43.410;11.852;2023-12-04T11:38:30;8.10;62.30
42147;DHT22;27815;43.410;11.852;2023-12-04T11:42:33;8.10;62.40
42147;DHT22;27815;43.410;11.852;2023-12-04T11:46:36;8.30;62.30
42147;DHT22;27815;43.410;11.852;2023-12-04T11:50:39;8.20;62.40
42147;DHT22;27815;43.410;11.852;2023-12-04T11:54:57;8.30;62.30
42147;DHT22;27815;43.410;11.852;2023-12-04T11:59:04;8.30;62.10
42147;DHT22;27815;43.410;11.852;2023-12-04T12:03:09;8.50;61.80
42147;DHT22;27815;43.410;11.852;2023-12-04T12:07:24;8.40;61.70
42147;DHT22;27815;43.410;11.852;2023-12-04T12:11:28;8.40;61.90
42147;DHT22;27815;43.410;11.852;2023-12-04T12:15:32;8.40;61.80
42147;DHT22;27815;43.410;11.852;2023-12-04T12:19:36;8.50;62.10
42147;DHT22;27815;43.410;11.852;2023-12-04T12:23:41;8.50;62.10
42147;DHT22;27815;43.410;11.852;2023-12-04T12:27:45;8.40;62.20
42147;DHT22;27815;43.410;11.852;2023-12-04T12:31:49;8.50;62.20
42147;DHT22;27815;43.410;11.852;2023-12-04T12:35:52;8.50;62.10
42147;DHT22;27815;43.410;11.852;2023-12-04T12:40:05;8.50;62.20
42147;DHT22;27815;43.410;11.852;2023-12-04T12:44:12;8.40;62.40
42147;DHT22;27815;43.410;11.852;2023-12-04T12:48:16;8.40;62.40
42147;DHT22;27815;43.410;11.852;2023-12-04T12:52:20;8.30;62.40
42147;DHT22;27815;43.410;11.852;2023-12-04T12:56:23;8.40;62.50
42147;DHT22;27815;43.410;11.852;2023-12-04T13:00:27;8.30;62.60
42147;DHT22;27815;43.410;11.852;2023-12-04T13:04:38;8.20;62.70
42147;DHT22;27815;43.410;11.852;2023-12-04T13:08:41;8.20;62.70
42147;DHT22;27815;43.410;11.852;2023-12-04T13:12:44;8.30;62.70
42147;DHT22;27815;43.410;11.852;2023-12-04T13:16:47;8.30;62.60
42147;DHT22;27815;43.410;11.852;2023-12-04T13:20:50;8.30;62.60
42147;DHT22;27815;43.410;11.852;2023-12-04T13:24:53;8.30;62.80
42147;DHT22;27815;43.410;11.852;2023-12-04T13:28:56;8.20;62.80
42147;DHT22;27815;43.410;11.852;2023-12-04T13:32:59;8.20;62.90
42147;DHT22;27815;43.410;11.852;2023-12-04T13:37:04;8.20;62.90
42147;DHT22;27815;43.410;11.852;2023-12-04T13:41:07;8.20;62.90
42147;DHT22;27815;43.410;11.852;2023-12-04T13:45:39;8.20;62.90
42147;DHT22;27815;43.410;11.852;2023-12-04T13:49:42;8.10;63.00
42147;DHT22;27815;43.410;11.852;2023-12-04T13:53:49;8.10;63.10
42147;DHT22;27815;43.410;11.852;2023-12-04T13:57:53;8.10;63.10
42147;DHT22;27815;43.410;11.852;2023-12-04T14:02:01;8.00;63.40
42147;DHT22;27815;43.410;11.852;2023-12-04T14:06:07;7.80;63.80
42147;DHT22;27815;43.410;11.852;2023-12-04T14:10:11;7.80;64.00
42147;DHT22;27815;43.410;11.852;2023-12-04T14:14:14;7.80;64.00
42147;DHT22;27815;43.410;11.852;2023-12-04T14:18:17;7.90;64.10
42147;DHT22;27815;43.410;11.852;2023-12-04T14:22:20;7.90;64.00
42147;DHT22;27815;43.410;11.852;2023-12-04T14:26:23;7.90;64.00
42147;DHT22;27815;43.410;11.852;2023-12-04T14:30:27;8.00;64.00
42147;DHT22;27815;43.410;11.852;2023-12-04T14:34:30;8.00;63.90
42147;DHT22;27815;43.410;11.852;2023-12-04T14:38:36;8.00;64.00
42147;DHT22;27815;43.410;11.852;2023-12-04T14:42:41;8.00;64.00
42147;DHT22;27815;43.410;11.852;2023-12-04T14:46:44;8.00;64.10
42147;DHT22;27815;43.410;11.852;2023-12-04T14:50:48;8.00;64.20
42147;DHT22;27815;43.410;11.852;2023-12-04T14:54:51;8.10;64.20
42147;DHT22;27815;43.410;11.852;2023-12-04T14:59:00;8.10;64.30
42147;DHT22;27815;43.410;11.852;2023-12-04T15:03:27;8.10;64.30
42147;DHT22;27815;43.410;11.852;2023-12-04T15:07:39;8.00;64.40
42147;DHT22;27815;43.410;11.852;2023-12-04T15:11:42;7.90;64.70
42147;DHT22;27815;43.410;11.852;2023-12-04T15:16:05;7.90;64.80
42147;DHT22;27815;43.410;11.852;2023-12-04T15:20:24;7.80;65.40
42147;DHT22;27815;43.410;11.852;2023-12-04T15:24:34;7.80;65.60
42147;DHT22;27815;43.410;11.852;2023-12-04T15:28:41;7.70;65.70
42147;DHT22;27815;43.410;11.852;2023-12-04T15:32:45;7.50;66.40
42147;DHT22;27815;43.410;11.852;2023-12-04T15:36:48;7.40;66.50
42147;DHT22;27815;43.410;11.852;2023-12-04T15:40:55;7.30;66.70
42147;DHT22;27815;43.410;11.852;2023-12-04T15:45:07;7.20;67.40
42147;DHT22;27815;43.410;11.852;2023-12-04T15:49:10;7.30;67.30
42147;DHT22;27815;43.410;11.852;2023-12-04T15:53:14;7.30;67.20
42147;DHT22;27815;43.410;11.852;2023-12-04T15:57:18;7.30;67.20
42147;DHT22;27815;43.410;11.852;2023-12-04T16:01:21;7.30;67.60
42147;DHT22;27815;43.410;11.852;2023-12-04T16:05:29;7.30;67.60
42147;DHT22;27815;43.410;11.852;2023-12-04T16:09:32;7.40;67.70
42147;DHT22;27815;43.410;11.852;2023-12-04T16:13:46;7.40;67.60
42147;DHT22;27815;43.410;11.852;2023-12-04T16:17:52;7.30;67.80
42147;DHT22;27815;43.410;11.852;2023-12-04T16:22:14;7.40;68.00
42147;DHT22;27815;43.410;11.852;2023-12-04T16:26:18;7.40;68.10
42147;DHT22;27815;43.410;11.852;2023-12-04T16:30:21;7.50;68.10
42147;DHT22;27815;43.410;11.852;2023-12-04T16:34:24;7.50;68.20
42147;DHT22;27815;43.410;11.852;2023-12-04T16:38:30;7.50;68.10
42147;DHT22;27815;43.410;11.852;2023-12-04T16:42:34;7.60;68.10
42147;DHT22;27815;43.410;11.852;2023-12-04T16:46:37;7.60;68.20
42147;DHT22;27815;43.410;11.852;2023-12-04T16:50:40;7.60;68.30
42147;DHT22;27815;43.410;11.852;2023-12-04T16:55:07;7.60;68.30
42147;DHT22;27815;43.410;11.852;2023-12-04T16:59:28;7.50;68.80
42147;DHT22;27815;43.410;11.852;2023-12-04T17:03:50;7.50;69.10
42147;DHT22;27815;43.410;11.852;2023-12-04T17:12:49;7.50;69.00
42147;DHT22;27815;43.410;11.852;2023-12-04T17:16:53;7.50;68.90
42147;DHT22;27815;43.410;11.852;2023-12-04T17:21:00;7.50;69.00
42147;DHT22;27815;43.410;11.852;2023-12-04T17:25:04;7.50;69.20
42147;DHT22;27815;43.410;11.852;2023-12-04T17:29:14;7.50;69.10
42147;DHT22;27815;43.410;11.852;2023-12-04T17:33:19;7.60;69.10
42147;DHT22;27815;43.410;11.852;2023-12-04T17:37:22;7.60;69.10
42147;DHT22;27815;43.410;11.852;2023-12-04T17:41:25;7.60;69.10
42147;DHT22;27815;43.410;11.852;2023-12-04T17:45:28;7.60;69.10
42147;DHT22;27815;43.410;11.852;2023-12-04T17:49:36;7.60;69.20
42147;DHT22;27815;43.410;11.852;2023-12-04T17:53:48;7.60;69.40
42147;DHT22;27815;43.410;11.852;2023-12-04T17:57:54;7.50;69.80
42147;DHT22;27815;43.410;11.852;2023-12-04T18:02:07;7.40;69.60
42147;DHT22;27815;43.410;11.852;2023-12-04T18:06:12;7.30;69.90
42147;DHT22;27815;43.410;11.852;2023-12-04T18:10:18;7.30;69.80
42147;DHT22;27815;43.410;11.852;2023-12-04T18:14:22;7.30;69.90
42147;DHT22;27815;43.410;11.852;2023-12-04T18:18:25;7.30;69.90
42147;DHT22;27815;43.410;11.852;2023-12-04T18:22:28;7.40;69.90
42147;DHT22;27815;43.410;11.852;2023-12-04T18:26:34;7.40;69.90
42147;DHT22;27815;43.410;11.852;2023-12-04T18:30:38;7.30;70.00
42147;DHT22;27815;43.410;11.852;2023-12-04T18:34:41;7.30;70.10
42147;DHT22;27815;43.410;11.852;2023-12-04T18:42:51;7.40;70.30
42147;DHT22;27815;43.410;11.852;2023-12-04T18:46:54;7.40;70.20
42147;DHT22;27815;43.410;11.852;2023-12-04T18:50:59;7.50;70.30
42147;DHT22;27815;43.410;11.852;2023-12-04T18:55:04;7.50;70.20
42147;DHT22;27815;43.410;11.852;2023-12-04T18:59:07;7.30;70.40
42147;DHT22;27815;43.410;11.852;2023-12-04T19:03:10;7.30;70.50
42147;DHT22;27815;43.410;11.852;2023-12-04T19:07:13;7.40;70.50
42147;DHT22;27815;43.410;11.852;2023-12-04T19:11:17;7.40;70.60
42147;DHT22;27815;43.410;11.852;2023-12-04T19:15:19;7.50;70.60
42147;DHT22;27815;43.410;11.852;2023-12-04T19:19:22;7.50;70.60
42147;DHT22;27815;43.410;11.852;2023-12-04T19:23:26;7.50;70.60
42147;DHT22;27815;43.410;11.852;2023-12-04T19:27:29;7.50;70.70
42147;DHT22;27815;43.410;11.852;2023-12-04T19:31:32;7.50;70.80
42147;DHT22;27815;43.410;11.852;2023-12-04T19:35:35;7.50;70.90
42147;DHT22;27815;43.410;11.852;2023-12-04T19:39:38;7.50;70.80
42147;DHT22;27815;43.410;11.852;2023-12-04T19:43:43;7.50;70.90
42147;DHT22;27815;43.410;11.852;2023-12-04T19:52:41;7.50;71.30
42147;DHT22;27815;43.410;11.852;2023-12-04T19:56:48;7.50;71.00
42147;DHT22;27815;43.410;11.852;2023-12-04T20:00:52;7.50;71.00
42147;DHT22;27815;43.410;11.852;2023-12-04T20:04:55;7.50;71.00
42147;DHT22;27815;43.410;11.852;2023-12-04T20:08:59;7.50;71.10
42147;DHT22;27815;43.410;11.852;2023-12-04T20:13:02;7.50;71.20
42147;DHT22;27815;43.410;11.852;2023-12-04T20:17:05;7.50;71.30
42147;DHT22;27815;43.410;11.852;2023-12-04T20:21:08;7.50;71.30
42147;DHT22;27815;43.410;11.852;2023-12-04T20:25:11;7.60;71.30
42147;DHT22;27815;43.410;11.852;2023-12-04T20:29:17;7.60;71.40
42147;DHT22;27815;43.410;11.852;2023-12-04T20:33:28;7.60;71.50
42147;DHT22;27815;43.410;11.852;2023-12-04T20:37:31;7.60;71.40
42147;DHT22;27815;43.410;11.852;2023-12-04T20:41:44;7.60;71.40
42147;DHT22;27815;43.410;11.852;2023-12-04T20:45:47;7.60;71.50
42147;DHT22;27815;43.410;11.852;2023-12-04T20:49:51;7.60;71.60
42147;DHT22;27815;43.410;11.852;2023-12-04T20:53:54;7.60;71.70
42147;DHT22;27815;43.410;11.852;2023-12-04T20:57:58;7.60;71.70
42147;DHT22;27815;43.410;11.852;2023-12-04T21:02:02;7.50;71.80
42147;DHT22;27815;43.410;11.852;2023-12-04T21:06:07;7.50;71.90
42147;DHT22;27815;43.410;11.852;2023-12-04T21:10:10;7.50;72.00
42147;DHT22;27815;43.410;11.852;2023-12-04T21:14:28;7.50;72.10
42147;DHT22;27815;43.410;11.852;2023-12-04T21:18:44;7.50;72.40
42147;DHT22;27815;43.410;11.852;2023-12-04T21:22:47;7.50;72.20
42147;DHT22;27815;43.410;11.852;2023-12-04T21:26:51;7.50;72.10
42147;DHT22;27815;43.410;11.852;2023-12-04T21:30:54;7.50;72.10
42147;DHT22;27815;43.410;11.852;2023-12-04T21:35:17;7.50;72.10
42147;DHT22;27815;43.410;11.852;2023-12-04T21:39:54;7.50;72.50
42147;DHT22;27815;43.410;11.852;2023-12-04T21:43:58;7.50;72.20
42147;DHT22;27815;43.410;11.852;2023-12-04T21:48:01;7.50;72.30
42147;DHT22;27815;43.410;11.852;2023-12-04T21:52:05;7.50;72.30
42147;DHT22;27815;43.410;11.852;2023-12-04T21:56:08;7.50;72.40
42147;DHT22;27815;43.410;11.852;2023-12-04T22:00:12;7.40;72.40
42147;DHT22;27815;43.410;11.852;2023-12-04T22:04:15;7.50;72.40
42147;DHT22;27815;43.410;11.852;2023-12-04T22:08:19;7.50;72.40
42147;DHT22;27815;43.410;11.852;2023-12-04T22:12:22;7.40;72.40
42147;DHT22;27815;43.410;11.852;2023-12-04T22:16:25;7.50;72.40
42147;DHT22;27815;43.410;11.852;2023-12-04T22:20:28;7.50;72.50
42147;DHT22;27815;43.410;11.852;2023-12-04T22:24:31;7.30;72.70
42147;DHT22;27815;43.410;11.852;2023-12-04T22:28:35;7.30;72.80
42147;DHT22;27815;43.410;11.852;2023-12-04T22:32:38;7.30;72.80
42147;DHT22;27815;43.410;11.852;2023-12-04T22:36:41;7.30;72.80
42147;DHT22;27815;43.410;11.852;2023-12-04T22:40:45;7.30;73.00
42147;DHT22;27815;43.410;11.852;2023-12-04T22:44:49;7.30;73.00
42147;DHT22;27815;43.410;11.852;2023-12-04T22:48:51;7.30;73.10
42147;DHT22;27815;43.410;11.852;2023-12-04T22:52:55;7.30;73.20
42147;DHT22;27815;43.410;11.852;2023-12-04T22:57:10;7.30;73.20
42147;DHT22;27815;43.410;11.852;2023-12-04T23:01:13;7.30;73.20
42147;DHT22;27815;43.410;11.852;2023-12-04T23:05:16;7.30;73.40
42147;DHT22;27815;43.410;11.852;2023-12-04T23:09:19;7.30;73.40
42147;DHT22;27815;43.410;11.852;2023-12-04T23:13:22;7.30;73.40
42147;DHT22;27815;43.410;11.852;2023-12-04T23:17:25;7.30;73.40
42147;DHT22;27815;43.410;11.852;2023-12-04T23:21:28;7.40;73.60
42147;DHT22;27815;43.410;11.852;2023-12-04T23:25:31;7.50;73.60
42147;DHT22;27815;43.410;11.852;2023-12-04T23:29:34;7.50;73.60
42147;DHT22;27815;43.410;11.852;2023-12-04T23:33:37;7.60;73.50
42147;DHT22;27815;43.410;11.852;2023-12-04T23:37:40;7.60;73.60
42147;DHT22;27815;43.410;11.852;2023-12-04T23:41:43;7.60;73.60
42147;DHT22;27815;43.410;11.852;2023-12-04T23:45:46;7.60;73.80
42147;DHT22;27815;43.410;11.852;2023-12-04T23:49:57;7.70;74.00
42147;DHT22;27815;43.410;11.852;2023-12-04T23:54:00;7.70;74.10
42147;DHT22;27815;43.410;11.852;2023-12-04T23:58:03;7.80;74.30
